createdAt,value
2024-01-18T00:02:14.312Z,18.17
2024-01-18T00:04:41.223Z,17.60
2024-01-18T00:07:08.152Z,19.03
2024-01-18T00:09:35.070Z,16.90
2024-01-18T00:12:03.467Z,20.87
2024-01-18T00:14:30.334Z,17.50
2024-01-18T00:16:57.142Z,20.03
2024-01-18T00:19:24.090Z,17.93
2024-01-18T00:21:50.925Z,19.60
2024-01-18T00:24:17.875Z,21.93
2024-01-18T00:26:44.716Z,19.90
2024-01-18T00:29:12.885Z,20.47
2024-01-18T00:31:40.035Z,18.97
2024-01-18T00:34:07.068Z,21.27
2024-01-18T00:36:33.859Z,21.37
2024-01-18T00:39:01.195Z,18.57
2024-01-18T00:41:31.897Z,17.70
2024-01-18T00:43:58.666Z,17.80
2024-01-18T00:46:26.856Z,19.37
2024-01-18T00:48:53.962Z,18.60
2024-01-18T00:51:20.907Z,17.30
2024-01-18T00:53:47.796Z,18.73
2024-01-18T00:56:14.897Z,15.83
2024-01-18T00:58:41.758Z,17.07
2024-01-18T01:01:08.652Z,14.47
2024-01-18T01:03:36.858Z,15.47
2024-01-18T01:06:04.110Z,15.13
2024-01-18T01:08:31.270Z,14.60
2024-01-18T01:10:58.040Z,14.80
2024-01-18T01:13:24.936Z,15.40
2024-01-18T01:15:51.852Z,15.10
2024-01-18T01:18:18.939Z,16.43
2024-01-18T01:20:47.161Z,15.87
2024-01-18T01:23:13.931Z,17.20
2024-01-18T01:25:40.815Z,15.40
2024-01-18T01:28:07.660Z,16.80
2024-01-18T01:30:35.173Z,15.03
2024-01-18T01:33:02.429Z,13.63
2024-01-18T01:35:29.250Z,13.87
2024-01-18T01:37:57.367Z,14.40
2024-01-18T01:40:24.412Z,14.33
2024-01-18T01:42:51.520Z,14.70
2024-01-18T01:45:18.334Z,17.20
2024-01-18T01:47:45.370Z,14.73
2024-01-18T01:50:13.358Z,15.70
2024-01-18T01:52:42.413Z,16.33
2024-01-18T01:55:14.388Z,16.10
2024-01-18T01:57:42.867Z,12.90
2024-01-18T02:00:11.270Z,14.53
2024-01-18T02:02:42.407Z,16.33
2024-01-18T02:05:10.087Z,14.83
2024-01-18T02:07:37.302Z,13.70
2024-01-18T02:10:04.820Z,15.83
2024-01-18T02:12:33.285Z,14.43
2024-01-18T02:15:00.786Z,13.13
2024-01-18T02:17:28.310Z,16.70
2024-01-18T02:19:55.193Z,15.00
2024-01-18T02:22:26.017Z,13.93
2024-01-18T02:24:59.659Z,13.80
2024-01-18T02:27:27.924Z,13.40
2024-01-18T02:29:54.742Z,12.90
2024-01-18T02:32:21.534Z,13.87
2024-01-18T02:34:48.409Z,13.57
2024-01-18T02:37:15.373Z,13.17
2024-01-18T02:39:42.284Z,11.37
2024-01-18T02:42:09.121Z,11.80
2024-01-18T02:44:38.092Z,12.70
2024-01-18T02:47:05.431Z,13.30
2024-01-18T02:49:36.265Z,14.40
2024-01-18T02:52:03.128Z,13.10
2024-01-18T02:54:30.240Z,13.13
2024-01-18T02:56:57.126Z,12.40
2024-01-18T02:59:23.935Z,12.63
2024-01-18T03:01:52.127Z,13.57
2024-01-18T03:04:19.339Z,13.37
2024-01-18T03:06:46.189Z,13.73
2024-01-18T03:09:13.150Z,14.53
2024-01-18T03:11:40.032Z,13.37
2024-01-18T03:14:06.822Z,12.07
2024-01-18T03:16:34.629Z,12.73
2024-01-18T03:19:03.211Z,12.27
2024-01-18T03:21:30.167Z,14.27
2024-01-18T03:23:56.984Z,12.07
2024-01-18T03:26:23.792Z,13.27
2024-01-18T03:28:50.595Z,13.83
2024-01-18T03:31:17.389Z,12.80
2024-01-18T03:33:44.476Z,13.90
2024-01-18T03:36:12.857Z,12.07
2024-01-18T03:38:39.816Z,11.37
2024-01-18T03:41:06.774Z,13.30
2024-01-18T03:43:36.443Z,13.47
2024-01-18T03:46:03.333Z,12.53
2024-01-18T03:48:30.216Z,11.27
2024-01-18T03:50:57.079Z,12.20
2024-01-18T03:53:25.452Z,13.50
2024-01-18T03:55:52.166Z,14.37
2024-01-18T03:58:18.940Z,13.53
2024-01-18T04:00:45.795Z,12.60
2024-01-18T04:03:12.764Z,13.27
2024-01-18T04:05:39.599Z,13.30
2024-01-18T04:08:06.601Z,12.30
2024-01-18T04:10:34.836Z,12.93
2024-01-18T04:13:01.652Z,13.77
2024-01-18T04:15:28.510Z,12.93
2024-01-18T04:17:55.455Z,15.17
2024-01-18T04:20:22.230Z,13.23
2024-01-18T04:22:49.002Z,13.87
2024-01-18T04:25:15.863Z,15.40
2024-01-18T04:27:44.234Z,15.43
2024-01-18T04:30:12.776Z,12.97
2024-01-18T04:32:39.581Z,14.00
2024-01-18T04:35:07.022Z,13.23
2024-01-18T04:37:34.144Z,13.90
2024-01-18T04:40:00.906Z,15.03
2024-01-18T04:42:27.714Z,14.03
2024-01-18T04:44:55.884Z,14.03
2024-01-18T04:47:22.723Z,15.33
2024-01-18T04:49:49.531Z,16.30
2024-01-18T04:52:16.363Z,12.80
2024-01-18T04:54:43.217Z,15.40
2024-01-18T04:57:10.548Z,14.07
2024-01-18T04:59:37.328Z,14.47
2024-01-18T05:02:05.534Z,14.40
2024-01-18T05:04:32.435Z,15.17
2024-01-18T05:06:59.519Z,13.43
2024-01-18T05:09:26.410Z,12.90
2024-01-18T05:11:53.225Z,14.00
2024-01-18T05:14:20.157Z,13.03
2024-01-18T05:16:46.943Z,13.53
2024-01-18T05:19:15.202Z,13.57
2024-01-18T05:21:42.244Z,12.73
2024-01-18T05:24:09.152Z,13.30
2024-01-18T05:26:35.964Z,12.83
2024-01-18T05:29:02.750Z,13.10
2024-01-18T05:31:29.565Z,13.17
2024-01-18T05:33:56.978Z,12.87
2024-01-18T05:36:25.371Z,15.07
2024-01-18T05:38:52.211Z,16.43
2024-01-18T05:41:19.073Z,12.63
2024-01-18T05:43:46.492Z,15.63
2024-01-18T05:46:13.475Z,15.47
2024-01-18T05:48:40.658Z,13.37
2024-01-18T05:51:07.586Z,13.40
2024-01-18T05:53:35.785Z,14.93
2024-01-18T05:56:02.819Z,14.60
2024-01-18T05:58:29.670Z,15.80
2024-01-18T06:00:56.882Z,14.13
2024-01-18T06:03:24.065Z,13.23
2024-01-18T06:05:51.054Z,13.93
2024-01-18T06:08:17.908Z,12.03
2024-01-18T06:10:45.971Z,16.50
2024-01-18T06:13:12.734Z,14.47
2024-01-18T06:15:39.547Z,11.87
2024-01-18T06:18:06.841Z,14.43
2024-01-18T06:20:33.775Z,14.43
2024-01-18T06:23:00.643Z,15.60
2024-01-18T06:25:27.476Z,13.93
2024-01-18T06:27:55.685Z,14.90
2024-01-18T06:30:22.396Z,17.40
2024-01-18T06:32:49.208Z,17.20
2024-01-18T06:35:16.126Z,12.27
2024-01-18T06:37:42.955Z,15.93
2024-01-18T06:40:11.225Z,16.33
2024-01-18T06:42:38.043Z,14.57
2024-01-18T06:45:08.030Z,15.50
2024-01-18T06:47:34.843Z,13.77
2024-01-18T06:50:01.945Z,14.53
2024-01-18T06:52:29.030Z,15.40
2024-01-18T06:54:55.958Z,15.13
2024-01-18T06:57:25.588Z,13.57
2024-01-18T06:59:55.236Z,14.17
2024-01-18T07:02:27.562Z,16.47
2024-01-18T07:05:00.851Z,15.33
2024-01-18T07:07:27.648Z,16.90
2024-01-18T07:09:54.775Z,16.43
2024-01-18T07:12:21.677Z,18.20
2024-01-18T07:14:51.207Z,15.47
2024-01-18T07:17:18.496Z,14.07
2024-01-18T07:19:47.004Z,15.57
2024-01-18T07:22:13.989Z,14.40
2024-01-18T07:24:46.280Z,15.43
2024-01-18T07:27:13.596Z,15.47
2024-01-18T07:29:44.762Z,14.13
2024-01-18T07:32:12.408Z,15.23
2024-01-18T07:34:40.472Z,15.50
2024-01-18T07:37:16.145Z,16.13
2024-01-18T07:39:43.403Z,18.93
2024-01-18T07:42:10.862Z,16.10
2024-01-18T07:44:39.760Z,16.27
2024-01-18T07:47:07.553Z,16.67
2024-01-18T07:49:37.967Z,16.57
2024-01-18T07:52:05.792Z,15.37
2024-01-18T07:54:34.585Z,16.07
2024-01-18T07:57:01.641Z,16.07
2024-01-18T08:02:13.561Z,18.40
2024-01-18T08:04:40.654Z,18.03
2024-01-18T08:07:12.466Z,18.70
2024-01-18T08:09:47.068Z,17.53
2024-01-18T08:12:14.427Z,18.37
2024-01-18T08:15:10.462Z,17.10
2024-01-18T08:17:42.719Z,20.47
2024-01-18T08:20:18.949Z,19.80
2024-01-18T08:22:47.828Z,19.70
2024-01-18T08:25:16.235Z,19.40
2024-01-18T08:27:44.322Z,18.27
2024-01-18T08:30:12.145Z,19.20
2024-01-18T08:32:39.237Z,19.33
2024-01-18T08:35:07.489Z,18.50
2024-01-18T08:37:34.601Z,16.50
2024-01-18T08:40:01.631Z,17.83
2024-01-18T08:42:39.531Z,19.50
2024-01-18T08:45:47.585Z,18.77
2024-01-18T08:48:34.896Z,18.33
2024-01-18T08:53:47.151Z,17.37
2024-01-18T08:59:59.386Z,18.23
2024-01-18T09:02:41.034Z,18.13
2024-01-18T09:05:09.253Z,18.50
2024-01-18T09:10:51.267Z,19.93
2024-01-18T09:13:20.592Z,18.27
2024-01-18T09:22:27.910Z,19.23
2024-01-18T09:24:58.175Z,20.97
2024-01-18T09:34:48.533Z,18.30
2024-01-18T09:41:15.927Z,20.87
2024-01-18T09:44:05.142Z,20.50
2024-01-18T09:57:36.505Z,20.93
2024-01-18T10:03:32.215Z,20.07
2024-01-18T10:06:34.573Z,22.70
2024-01-18T10:15:17.806Z,19.90
2024-01-18T10:17:48.986Z,18.57
2024-01-18T10:23:36.370Z,21.33
2024-01-18T10:26:05.009Z,20.33
2024-01-18T10:28:31.738Z,21.43
2024-01-18T10:30:59.766Z,22.40
2024-01-18T10:33:26.739Z,23.57
2024-01-18T10:35:53.589Z,19.67
2024-01-18T10:38:28.697Z,19.30
2024-01-18T10:40:55.519Z,20.50
2024-01-18T10:43:24.183Z,18.17
2024-01-18T10:45:51.162Z,21.60
2024-01-18T10:48:19.390Z,22.17
2024-01-18T10:50:47.374Z,18.60
2024-01-18T10:53:15.767Z,23.67
2024-01-18T10:55:42.499Z,22.00
2024-01-18T10:58:09.487Z,22.20
2024-01-18T11:00:37.684Z,21.57
2024-01-18T11:03:05.809Z,22.07
2024-01-18T11:05:36.427Z,21.33
2024-01-18T11:08:03.922Z,21.27
2024-01-18T11:10:32.482Z,22.20
2024-01-18T11:12:59.832Z,21.90
2024-01-18T11:15:26.938Z,20.23
2024-01-18T11:17:55.051Z,20.87
2024-01-18T11:20:22.169Z,21.43
2024-01-18T11:22:49.248Z,22.30
2024-01-18T11:25:19.695Z,21.97
2024-01-18T11:27:47.499Z,22.30
2024-01-18T11:30:32.114Z,25.73
2024-01-18T11:33:00.664Z,24.33
2024-01-18T11:35:30.782Z,20.87
2024-01-18T11:38:18.945Z,22.60
2024-01-18T11:40:45.856Z,23.27
2024-01-18T11:43:12.705Z,20.33
2024-01-18T11:45:44.305Z,21.50
2024-01-18T11:48:13.389Z,26.40
2024-01-18T11:50:40.373Z,23.57
2024-01-18T11:53:09.788Z,23.13
2024-01-18T11:55:41.531Z,20.27
2024-01-18T11:58:23.339Z,20.10
2024-01-18T12:00:50.412Z,21.70
2024-01-18T12:03:18.702Z,21.03
2024-01-18T12:05:45.444Z,23.00
2024-01-18T12:08:12.258Z,23.07
2024-01-18T12:10:39.371Z,22.80
2024-01-18T12:13:06.479Z,21.93
2024-01-18T12:15:33.700Z,18.30
2024-01-18T12:18:00.770Z,19.33
2024-01-18T12:20:29.222Z,20.30
2024-01-18T12:22:55.945Z,19.03
2024-01-18T12:25:22.711Z,18.60
2024-01-18T12:27:49.624Z,17.17
2024-01-18T12:30:16.640Z,17.50
2024-01-18T12:32:43.799Z,16.43
2024-01-18T12:35:10.972Z,16.50
2024-01-18T12:37:40.556Z,13.93
2024-01-18T12:40:10.364Z,16.70
2024-01-18T12:42:37.529Z,16.60
2024-01-18T12:45:08.133Z,19.00
2024-01-18T12:47:38.248Z,19.57
2024-01-18T12:50:06.797Z,15.00
2024-01-18T12:52:35.007Z,16.57
2024-01-18T12:55:10.335Z,16.00
2024-01-18T12:57:42.703Z,13.53
2024-01-18T13:00:11.589Z,14.77
2024-01-18T13:02:38.863Z,15.63
2024-01-18T13:05:13.072Z,14.37
2024-01-18T13:07:40.507Z,14.10
2024-01-18T13:10:12.038Z,15.57
2024-01-18T13:12:38.962Z,15.10
2024-01-18T13:15:07.024Z,13.27
2024-01-18T13:17:34.986Z,14.30
2024-01-18T13:20:04.825Z,11.17
2024-01-18T13:22:31.662Z,13.27
2024-01-18T13:24:58.537Z,13.97
2024-01-18T13:27:26.695Z,11.87
2024-01-18T13:29:53.631Z,11.87
2024-01-18T13:32:20.395Z,11.60
2024-01-18T13:34:47.437Z,11.50
2024-01-18T13:37:18.371Z,11.57
2024-01-18T13:39:45.699Z,11.07
2024-01-18T13:42:12.437Z,10.07
2024-01-18T13:44:40.766Z,11.23
2024-01-18T13:47:07.677Z,12.33
2024-01-18T13:49:37.095Z,11.60
2024-01-18T13:52:05.214Z,11.47
2024-01-18T13:54:32.015Z,11.77
2024-01-18T13:56:58.961Z,10.10
2024-01-18T13:59:25.888Z,10.43
2024-01-18T14:01:54.710Z,11.60
2024-01-18T14:04:23.925Z,11.23
2024-01-18T14:06:50.798Z,11.23
2024-01-18T14:09:17.635Z,11.57
2024-01-18T14:11:44.521Z,10.13
2024-01-18T14:14:11.349Z,11.90
2024-01-18T14:16:38.646Z,10.47
2024-01-18T14:19:06.915Z,10.37
2024-01-18T14:21:35.880Z,11.23
2024-01-18T14:24:02.654Z,11.07
2024-01-18T14:26:29.666Z,10.40
2024-01-18T14:28:56.793Z,12.17
2024-01-18T14:31:23.607Z,12.20
2024-01-18T14:33:50.561Z,12.30
2024-01-18T14:36:19.091Z,13.03
2024-01-18T14:38:46.566Z,14.97
2024-01-18T14:41:13.522Z,14.67
2024-01-18T14:43:40.462Z,14.83
2024-01-18T14:46:07.380Z,15.17
2024-01-18T14:48:34.303Z,16.37
2024-01-18T14:51:01.487Z,16.10
2024-01-18T14:53:29.668Z,14.00
2024-01-18T14:55:56.722Z,15.90
2024-01-18T14:58:23.888Z,16.63
2024-01-18T15:00:50.718Z,17.43
2024-01-18T15:03:17.645Z,18.03
2024-01-18T15:05:44.717Z,16.90
2024-01-18T15:08:11.743Z,16.50
2024-01-18T15:10:40.002Z,16.13
2024-01-18T15:13:07.081Z,16.40
2024-01-18T15:15:36.026Z,16.43
2024-01-18T15:18:02.843Z,17.53
2024-01-18T15:20:29.829Z,17.43
2024-01-18T15:23:01.911Z,17.30
2024-01-18T15:25:30.624Z,18.43
2024-01-18T15:28:01.807Z,15.70
2024-01-18T15:30:28.841Z,15.07
2024-01-18T15:32:55.658Z,17.00
2024-01-18T15:35:22.504Z,15.40
2024-01-18T15:37:49.259Z,15.30
2024-01-18T15:40:16.216Z,16.23
2024-01-18T15:42:43.016Z,15.30
2024-01-18T15:45:11.377Z,17.53
2024-01-18T15:47:38.218Z,16.73
2024-01-18T15:50:06.029Z,12.63
2024-01-18T15:52:32.955Z,15.47
2024-01-18T15:54:59.931Z,15.87
2024-01-18T15:57:26.859Z,15.90
2024-01-18T15:59:53.759Z,15.00
2024-01-18T16:02:21.836Z,14.80
2024-01-18T16:04:48.843Z,14.70
2024-01-18T16:07:15.646Z,15.03
2024-01-18T16:09:42.725Z,16.67
2024-01-18T16:12:09.961Z,14.33
2024-01-18T16:14:36.893Z,17.53
2024-01-18T16:17:03.795Z,13.33
2024-01-18T16:19:31.927Z,15.60
2024-01-18T16:21:58.899Z,15.47
2024-01-18T16:24:25.763Z,18.03
2024-01-18T16:26:52.559Z,14.97
2024-01-18T16:29:19.341Z,18.20
2024-01-18T16:31:46.099Z,14.47
2024-01-18T16:34:13.268Z,15.70
2024-01-18T16:36:42.225Z,14.17
2024-01-18T16:39:09.073Z,11.40
2024-01-18T16:41:36.053Z,13.93
2024-01-18T16:44:02.969Z,12.50
2024-01-18T16:46:32.300Z,12.40
2024-01-18T16:49:00.332Z,13.07
2024-01-18T16:51:27.288Z,11.87
2024-01-18T16:53:55.451Z,13.77
2024-01-18T16:56:22.268Z,11.90
2024-01-18T16:58:51.476Z,12.47
2024-01-18T17:01:20.509Z,11.17
2024-01-18T17:03:47.377Z,11.40
2024-01-18T17:06:14.652Z,11.67
2024-01-18T17:08:41.991Z,9.73
2024-01-18T17:11:16.715Z,9.77
2024-01-18T17:13:47.286Z,10.30
2024-01-18T17:16:14.158Z,10.23
2024-01-18T17:18:40.983Z,10.90
2024-01-18T17:21:07.766Z,9.57
2024-01-18T17:23:34.552Z,10.70
2024-01-18T17:26:01.420Z,9.20
2024-01-18T17:28:29.697Z,9.80
2024-01-18T17:30:56.413Z,9.40
2024-01-18T17:33:23.402Z,8.17
2024-01-18T17:35:50.336Z,6.90
2024-01-18T17:38:17.338Z,8.40
2024-01-18T17:40:44.267Z,8.47
2024-01-18T17:43:11.017Z,7.60
2024-01-18T17:45:39.080Z,8.10
2024-01-18T17:48:06.724Z,9.47
2024-01-18T17:50:33.629Z,7.83
2024-01-18T17:53:00.418Z,6.37
2024-01-18T17:55:27.222Z,6.67
2024-01-18T17:57:53.954Z,6.17
2024-01-18T18:00:29.513Z,7.50
2024-01-18T18:03:04.233Z,7.00
2024-01-18T18:05:31.008Z,7.13
2024-01-18T18:07:57.870Z,7.10
2024-01-18T18:10:24.666Z,6.93
2024-01-18T18:12:51.632Z,7.40
2024-01-18T18:15:18.414Z,8.00
2024-01-18T18:17:45.482Z,8.07
2024-01-18T18:20:13.839Z,8.27
2024-01-18T18:22:40.556Z,7.00
2024-01-18T18:25:07.645Z,9.07
2024-01-18T18:27:35.501Z,8.23
2024-01-18T18:30:02.224Z,7.40
2024-01-18T18:32:29.170Z,7.10
2024-01-18T18:34:56.234Z,6.63
2024-01-18T18:37:29.073Z,6.00
2024-01-18T18:39:59.476Z,7.90
2024-01-18T18:42:26.252Z,7.97
2024-01-18T18:44:53.274Z,6.43
2024-01-18T18:47:20.126Z,7.03
2024-01-18T18:49:47.118Z,6.80
2024-01-18T18:52:14.022Z,7.33
2024-01-18T18:54:42.141Z,7.43
2024-01-18T18:57:09.161Z,6.90
2024-01-18T18:59:40.368Z,6.57
2024-01-18T19:02:13.603Z,6.93
2024-01-18T19:04:40.519Z,7.03
2024-01-18T19:07:07.364Z,6.57
2024-01-18T19:09:34.406Z,7.27
2024-01-18T19:12:02.605Z,6.50
2024-01-18T19:14:29.438Z,7.00
2024-01-18T19:16:56.304Z,6.20
2024-01-18T19:19:23.270Z,6.53
2024-01-18T19:21:50.145Z,5.33
2024-01-18T19:24:17.053Z,7.27
2024-01-18T19:26:46.872Z,6.90
2024-01-18T19:29:15.214Z,6.80
2024-01-18T19:31:41.929Z,6.43
2024-01-18T19:34:08.709Z,7.63
2024-01-18T19:36:35.550Z,7.47
2024-01-18T19:39:02.305Z,6.60
2024-01-18T19:41:29.304Z,7.67
2024-01-18T19:43:56.126Z,7.20
2024-01-18T19:46:24.298Z,6.73
2024-01-18T19:48:51.195Z,5.90
2024-01-18T19:51:18.129Z,7.40
2024-01-18T19:53:45.048Z,7.07
2024-01-18T19:56:11.844Z,7.50
2024-01-18T19:58:38.769Z,7.47
2024-01-18T20:01:05.623Z,8.00
2024-01-18T20:03:34.109Z,8.00
2024-01-18T20:06:01.377Z,7.10
2024-01-18T20:08:28.175Z,8.73
2024-01-18T20:10:55.218Z,8.07
2024-01-18T20:13:26.748Z,7.67
2024-01-18T20:15:53.628Z,7.77
2024-01-18T20:18:20.615Z,6.87
2024-01-18T20:20:48.878Z,8.00
2024-01-18T20:23:15.902Z,6.37
2024-01-18T20:25:42.922Z,6.83
2024-01-18T20:28:09.748Z,8.60
2024-01-18T20:30:36.566Z,8.00
2024-01-18T20:33:03.746Z,8.73
2024-01-18T20:35:30.704Z,7.07
2024-01-18T20:37:58.972Z,7.97
2024-01-18T20:40:25.818Z,9.50
2024-01-18T20:42:54.294Z,8.40
2024-01-18T20:45:21.380Z,7.30
2024-01-18T20:47:48.323Z,9.73
2024-01-18T20:50:15.441Z,8.20
2024-01-18T20:52:42.334Z,6.73
2024-01-18T20:55:10.780Z,8.13
2024-01-18T20:57:37.747Z,6.97
2024-01-18T21:00:05.950Z,7.53
2024-01-18T21:02:33.822Z,8.40
2024-01-18T21:05:00.841Z,8.20
2024-01-18T21:07:27.644Z,8.60
2024-01-18T21:09:54.538Z,5.90
2024-01-18T21:12:22.742Z,6.60
2024-01-18T21:14:49.851Z,6.50
2024-01-18T21:17:17.492Z,7.20
2024-01-18T21:19:44.388Z,7.40
2024-01-18T21:22:11.238Z,5.73
2024-01-18T21:24:38.161Z,6.67
2024-01-18T21:27:05.073Z,6.33
2024-01-18T21:29:33.336Z,5.73
2024-01-18T21:32:00.160Z,5.17
2024-01-18T21:34:27.016Z,4.93
2024-01-18T21:36:53.760Z,4.40
2024-01-18T21:39:20.593Z,5.30
2024-01-18T21:41:47.528Z,4.23
2024-01-18T21:44:14.597Z,5.70
2024-01-18T21:46:43.122Z,5.17
2024-01-18T21:49:09.993Z,5.97
2024-01-18T21:51:37.698Z,4.60
2024-01-18T21:54:04.596Z,4.23
2024-01-18T21:56:31.444Z,4.30
2024-01-18T21:58:58.310Z,5.13
2024-01-18T22:01:25.355Z,4.67
2024-01-18T22:03:53.691Z,4.77
2024-01-18T22:06:20.433Z,3.83
2024-01-18T22:08:47.211Z,4.57
2024-01-18T22:11:14.080Z,4.50
2024-01-18T22:13:40.870Z,4.50
2024-01-18T22:16:07.707Z,5.10
2024-01-18T22:18:34.570Z,4.70
2024-01-18T22:21:03.048Z,5.57
2024-01-18T22:23:29.857Z,4.73
2024-01-18T22:25:56.610Z,3.67
2024-01-18T22:28:23.371Z,3.77
2024-01-18T22:30:50.159Z,4.10
2024-01-18T22:33:17.294Z,4.63
2024-01-18T22:35:44.161Z,4.00
2024-01-18T22:38:12.300Z,4.03
2024-01-18T22:40:39.139Z,4.50
2024-01-18T22:43:05.936Z,5.00
2024-01-18T22:45:32.691Z,3.80
2024-01-18T22:47:59.578Z,5.75
2024-01-18T22:50:26.596Z,5.00
2024-01-18T22:52:53.571Z,5.30
2024-01-18T22:55:21.664Z,4.80
2024-01-18T22:57:48.387Z,4.30
2024-01-18T23:00:15.857Z,5.28
2024-01-18T23:02:42.658Z,4.85
2024-01-18T23:05:09.427Z,4.30
2024-01-18T23:07:36.202Z,5.13
2024-01-18T23:10:03.065Z,4.53
2024-01-18T23:12:31.475Z,6.07
2024-01-18T23:14:58.515Z,6.10
2024-01-18T23:17:25.381Z,5.30
2024-01-18T23:19:52.225Z,5.70
2024-01-18T23:22:19.255Z,6.00
2024-01-18T23:24:46.083Z,6.50
2024-01-18T23:27:13.081Z,7.60
2024-01-18T23:29:42.013Z,6.37
2024-01-18T23:32:08.818Z,7.10
2024-01-18T23:34:35.769Z,7.33
2024-01-18T23:37:02.575Z,7.30
2024-01-18T23:39:29.385Z,7.47
2024-01-18T23:41:56.880Z,6.73
2024-01-18T23:44:23.648Z,7.20
2024-01-18T23:46:51.828Z,6.60
2024-01-18T23:49:18.551Z,7.43
2024-01-18T23:51:45.424Z,6.63
2024-01-18T23:54:12.367Z,6.07
2024-01-18T23:56:39.167Z,7.45
2024-01-18T23:59:05.931Z,7.30
